sensor_id;sensor_type;location;lat;lon;timestamp;temperature;humidity
38592;DHT22;24356;48.460;11.450;2023-02-21T00:01:48;4.20;87.70
38592;DHT22;24356;48.460;11.450;2023-02-21T00:04:32;4.20;87.80
38592;DHT22;24356;48.460;11.450;2023-02-21T00:07:16;4.20;87.90
38592;DHT22;24356;48.460;11.450;2023-02-21T00:10:01;4.10;87.80
38592;DHT22;24356;48.460;11.450;2023-02-21T00:12:45;4.10;87.80
38592;DHT22;24356;48.460;11.450;2023-02-21T00:15:29;4.10;87.80
38592;DHT22;24356;48.460;11.450;2023-02-21T00:18:13;4.10;87.80
38592;DHT22;24356;48.460;11.450;2023-02-21T00:20:57;4.00;87.70
38592;DHT22;24356;48.460;11.450;2023-02-21T00:23:41;4.00;87.70
38592;DHT22;24356;48.460;11.450;2023-02-21T00:26:25;4.00;87.90
38592;DHT22;24356;48.460;11.450;2023-02-21T00:29:10;3.90;87.80
38592;DHT22;24356;48.460;11.450;2023-02-21T00:31:54;3.90;87.80
38592;DHT22;24356;48.460;11.450;2023-02-21T00:34:38;3.90;87.70
38592;DHT22;24356;48.460;11.450;2023-02-21T00:37:22;3.80;87.70
38592;DHT22;24356;48.460;11.450;2023-02-21T00:40:09;3.80;87.90
38592;DHT22;24356;48.460;11.450;2023-02-21T00:42:54;3.80;88.00
38592;DHT22;24356;48.460;11.450;2023-02-21T00:45:38;3.70;88.10
38592;DHT22;24356;48.460;11.450;2023-02-21T00:48:22;3.70;88.10
38592;DHT22;24356;48.460;11.450;2023-02-21T00:51:07;3.70;88.00
38592;DHT22;24356;48.460;11.450;2023-02-21T00:53:52;3.60;88.00
38592;DHT22;24356;48.460;11.450;2023-02-21T00:56:36;3.60;88.00
38592;DHT22;24356;48.460;11.450;2023-02-21T00:59:20;3.50;87.90
38592;DHT22;24356;48.460;11.450;2023-02-21T01:02:04;3.50;87.80
38592;DHT22;24356;48.460;11.450;2023-02-21T01:04:48;3.50;87.90
38592;DHT22;24356;48.460;11.450;2023-02-21T01:07:32;3.50;87.90
38592;DHT22;24356;48.460;11.450;2023-02-21T01:10:17;3.40;87.80
38592;DHT22;24356;48.460;11.450;2023-02-21T01:13:01;3.40;88.00
38592;DHT22;24356;48.460;11.450;2023-02-21T01:15:45;3.40;88.00
38592;DHT22;24356;48.460;11.450;2023-02-21T01:18:29;3.40;88.00
38592;DHT22;24356;48.460;11.450;2023-02-21T01:21:16;3.30;88.10
38592;DHT22;24356;48.460;11.450;2023-02-21T01:24:00;3.30;88.10
38592;DHT22;24356;48.460;11.450;2023-02-21T01:26:44;3.30;88.20
38592;DHT22;24356;48.460;11.450;2023-02-21T01:29:29;3.30;88.10
38592;DHT22;24356;48.460;11.450;2023-02-21T01:32:13;3.30;88.20
38592;DHT22;24356;48.460;11.450;2023-02-21T01:34:57;3.30;88.20
38592;DHT22;24356;48.460;11.450;2023-02-21T01:37:41;3.30;88.10
38592;DHT22;24356;48.460;11.450;2023-02-21T01:40:26;3.20;88.20
38592;DHT22;24356;48.460;11.450;2023-02-21T01:43:23;3.20;88.10
38592;DHT22;24356;48.460;11.450;2023-02-21T01:46:10;3.20;88.10
38592;DHT22;24356;48.460;11.450;2023-02-21T01:48:56;3.20;88.10
38592;DHT22;24356;48.460;11.450;2023-02-21T01:51:41;3.10;88.00
38592;DHT22;24356;48.460;11.450;2023-02-21T01:54:31;3.10;88.00
38592;DHT22;24356;48.460;11.450;2023-02-21T01:57:17;3.10;88.00
38592;DHT22;24356;48.460;11.450;2023-02-21T02:00:04;3.00;88.00
38592;DHT22;24356;48.460;11.450;2023-02-21T02:03:00;3.00;88.00
38592;DHT22;24356;48.460;11.450;2023-02-21T02:05:53;3.00;88.10
38592;DHT22;24356;48.460;11.450;2023-02-21T02:08:38;2.90;88.10
38592;DHT22;24356;48.460;11.450;2023-02-21T02:14:27;2.90;88.30
38592;DHT22;24356;48.460;11.450;2023-02-21T02:17:11;2.90;88.10
38592;DHT22;24356;48.460;11.450;2023-02-21T02:22:50;2.90;88.10
38592;DHT22;24356;48.460;11.450;2023-02-21T02:28:17;2.80;88.30
38592;DHT22;24356;48.460;11.450;2023-02-21T02:31:08;2.80;88.30
38592;DHT22;24356;48.460;11.450;2023-02-21T02:34:04;2.80;88.10
38592;DHT22;24356;48.460;11.450;2023-02-21T02:36:43;2.80;88.30
38592;DHT22;24356;48.460;11.450;2023-02-21T02:42:23;2.80;88.10
38592;DHT22;24356;48.460;11.450;2023-02-21T02:44:56;2.70;88.30
38592;DHT22;24356;48.460;11.450;2023-02-21T02:47:27;2.70;88.10
38592;DHT22;24356;48.460;11.450;2023-02-21T02:49:54;2.70;88.30
38592;DHT22;24356;48.460;11.450;2023-02-21T02:52:22;2.70;88.20
38592;DHT22;24356;48.460;11.450;2023-02-21T02:55:03;2.70;88.10
38592;DHT22;24356;48.460;11.450;2023-02-21T02:57:31;2.60;88.20
38592;DHT22;24356;48.460;11.450;2023-02-21T03:00:06;2.60;88.20
38592;DHT22;24356;48.460;11.450;2023-02-21T03:02:48;2.60;88.30
38592;DHT22;24356;48.460;11.450;2023-02-21T03:11:00;2.50;88.20
38592;DHT22;24356;48.460;11.450;2023-02-21T03:13:47;2.50;88.30
38592;DHT22;24356;48.460;11.450;2023-02-21T03:16:18;2.50;88.30
38592;DHT22;24356;48.460;11.450;2023-02-21T03:18:48;2.50;88.30
38592;DHT22;24356;48.460;11.450;2023-02-21T03:21:22;2.50;88.30
38592;DHT22;24356;48.460;11.450;2023-02-21T03:23:51;2.40;88.20
38592;DHT22;24356;48.460;11.450;2023-02-21T03:26:18;2.40;88.30
38592;DHT22;24356;48.460;11.450;2023-02-21T03:28:45;2.40;88.20
38592;DHT22;24356;48.460;11.450;2023-02-21T03:31:13;2.40;88.20
38592;DHT22;24356;48.460;11.450;2023-02-21T03:33:40;2.40;88.20
38592;DHT22;24356;48.460;11.450;2023-02-21T03:36:07;2.40;88.30
38592;DHT22;24356;48.460;11.450;2023-02-21T03:38:33;2.40;88.30
38592;DHT22;24356;48.460;11.450;2023-02-21T03:40:59;2.40;88.20
38592;DHT22;24356;48.460;11.450;2023-02-21T03:43:24;2.40;88.20
38592;DHT22;24356;48.460;11.450;2023-02-21T03:45:50;2.30;88.20
38592;DHT22;24356;48.460;11.450;2023-02-21T03:48:15;2.30;88.30
38592;DHT22;24356;48.460;11.450;2023-02-21T03:50:41;2.30;88.30
38592;DHT22;24356;48.460;11.450;2023-02-21T03:53:07;2.30;88.30
38592;DHT22;24356;48.460;11.450;2023-02-21T03:55:33;2.30;88.20
38592;DHT22;24356;48.460;11.450;2023-02-21T03:57:59;2.30;88.30
38592;DHT22;24356;48.460;11.450;2023-02-21T04:00:24;2.30;88.30
38592;DHT22;24356;48.460;11.450;2023-02-21T04:02:50;2.30;88.30
38592;DHT22;24356;48.460;11.450;2023-02-21T04:05:15;2.30;88.30
38592;DHT22;24356;48.460;11.450;2023-02-21T04:07:41;2.30;88.20
38592;DHT22;24356;48.460;11.450;2023-02-21T04:10:07;2.30;88.30
38592;DHT22;24356;48.460;11.450;2023-02-21T04:12:32;2.30;88.40
38592;DHT22;24356;48.460;11.450;2023-02-21T04:14:58;2.30;88.40
38592;DHT22;24356;48.460;11.450;2023-02-21T04:17:24;2.30;88.40
38592;DHT22;24356;48.460;11.450;2023-02-21T04:19:50;2.20;88.40
38592;DHT22;24356;48.460;11.450;2023-02-21T04:22:16;2.20;88.30
38592;DHT22;24356;48.460;11.450;2023-02-21T04:24:41;2.20;88.40
38592;DHT22;24356;48.460;11.450;2023-02-21T04:27:07;2.20;88.30
38592;DHT22;24356;48.460;11.450;2023-02-21T04:29:33;2.10;88.30
38592;DHT22;24356;48.460;11.450;2023-02-21T04:31:59;2.10;88.30
38592;DHT22;24356;48.460;11.450;2023-02-21T04:34:24;2.10;88.40
38592;DHT22;24356;48.460;11.450;2023-02-21T04:36:50;2.10;88.30
38592;DHT22;24356;48.460;11.450;2023-02-21T04:39:15;2.00;88.30
38592;DHT22;24356;48.460;11.450;2023-02-21T04:41:41;2.00;88.30
38592;DHT22;24356;48.460;11.450;2023-02-21T04:44:07;2.00;88.30
38592;DHT22;24356;48.460;11.450;2023-02-21T04:46:33;2.00;88.30
38592;DHT22;24356;48.460;11.450;2023-02-21T04:48:58;1.90;88.30
38592;DHT22;24356;48.460;11.450;2023-02-21T04:51:25;1.90;88.20
38592;DHT22;24356;48.460;11.450;2023-02-21T04:53:52;1.90;88.20
38592;DHT22;24356;48.460;11.450;2023-02-21T04:56:20;1.90;88.30
38592;DHT22;24356;48.460;11.450;2023-02-21T04:58:46;1.80;88.30
38592;DHT22;24356;48.460;11.450;2023-02-21T05:01:13;1.80;88.30
38592;DHT22;24356;48.460;11.450;2023-02-21T05:03:38;1.80;88.30
38592;DHT22;24356;48.460;11.450;2023-02-21T05:06:04;1.80;88.30
38592;DHT22;24356;48.460;11.450;2023-02-21T05:08:30;1.70;88.30
38592;DHT22;24356;48.460;11.450;2023-02-21T05:10:55;1.70;88.40
38592;DHT22;24356;48.460;11.450;2023-02-21T05:13:21;1.70;88.40
38592;DHT22;24356;48.460;11.450;2023-02-21T05:15:47;1.70;88.30
38592;DHT22;24356;48.460;11.450;2023-02-21T05:18:13;1.60;88.30
38592;DHT22;24356;48.460;11.450;2023-02-21T05:20:39;1.60;88.30
38592;DHT22;24356;48.460;11.450;2023-02-21T05:23:04;1.60;88.40
38592;DHT22;24356;48.460;11.450;2023-02-21T05:25:30;1.60;88.30
38592;DHT22;24356;48.460;11.450;2023-02-21T05:27:56;1.60;88.30
38592;DHT22;24356;48.460;11.450;2023-02-21T05:30:22;1.60;88.30
38592;DHT22;24356;48.460;11.450;2023-02-21T05:32:48;1.60;88.30
38592;DHT22;24356;48.460;11.450;2023-02-21T05:35:15;1.50;88.30
38592;DHT22;24356;48.460;11.450;2023-02-21T05:37:41;1.50;88.40
38592;DHT22;24356;48.460;11.450;2023-02-21T05:40:08;1.50;88.30
38592;DHT22;24356;48.460;11.450;2023-02-21T05:42:34;1.50;88.40
38592;DHT22;24356;48.460;11.450;2023-02-21T05:44:59;1.50;88.30
38592;DHT22;24356;48.460;11.450;2023-02-21T05:47:26;1.50;88.30
38592;DHT22;24356;48.460;11.450;2023-02-21T05:49:52;1.50;88.30
38592;DHT22;24356;48.460;11.450;2023-02-21T05:52:17;1.50;88.30
38592;DHT22;24356;48.460;11.450;2023-02-21T05:54:43;1.50;88.40
38592;DHT22;24356;48.460;11.450;2023-02-21T05:57:09;1.40;88.40
38592;DHT22;24356;48.460;11.450;2023-02-21T05:59:36;1.40;88.40
38592;DHT22;24356;48.460;11.450;2023-02-21T06:02:02;1.40;88.40
38592;DHT22;24356;48.460;11.450;2023-02-21T06:04:27;1.40;88.40
38592;DHT22;24356;48.460;11.450;2023-02-21T06:06:53;1.40;88.30
38592;DHT22;24356;48.460;11.450;2023-02-21T06:09:19;1.40;88.40
38592;DHT22;24356;48.460;11.450;2023-02-21T06:11:45;1.40;88.40
38592;DHT22;24356;48.460;11.450;2023-02-21T06:14:18;1.40;88.40
38592;DHT22;24356;48.460;11.450;2023-02-21T06:16:45;1.30;88.30
38592;DHT22;24356;48.460;11.450;2023-02-21T06:19:12;1.40;88.30
38592;DHT22;24356;48.460;11.450;2023-02-21T06:21:38;1.30;88.30
38592;DHT22;24356;48.460;11.450;2023-02-21T06:24:06;1.30;88.30
38592;DHT22;24356;48.460;11.450;2023-02-21T06:26:32;1.30;88.30
38592;DHT22;24356;48.460;11.450;2023-02-21T06:28:58;1.30;88.30
38592;DHT22;24356;48.460;11.450;2023-02-21T06:31:24;1.30;88.30
38592;DHT22;24356;48.460;11.450;2023-02-21T06:33:50;1.30;88.30
38592;DHT22;24356;48.460;11.450;2023-02-21T06:36:18;1.30;88.40
38592;DHT22;24356;48.460;11.450;2023-02-21T06:38:48;1.30;88.40
38592;DHT22;24356;48.460;11.450;2023-02-21T06:41:20;1.30;88.40
38592;DHT22;24356;48.460;11.450;2023-02-21T06:43:49;1.30;88.30
38592;DHT22;24356;48.460;11.450;2023-02-21T06:46:18;1.30;88.40
38592;DHT22;24356;48.460;11.450;2023-02-21T06:48:44;1.30;88.30
38592;DHT22;24356;48.460;11.450;2023-02-21T06:51:09;1.30;88.30
38592;DHT22;24356;48.460;11.450;2023-02-21T06:53:36;1.30;88.40
38592;DHT22;24356;48.460;11.450;2023-02-21T06:56:02;1.40;88.30
38592;DHT22;24356;48.460;11.450;2023-02-21T06:58:28;1.40;88.10
38592;DHT22;24356;48.460;11.450;2023-02-21T07:00:53;1.60;88.50
38592;DHT22;24356;48.460;11.450;2023-02-21T07:03:19;1.80;88.20
38592;DHT22;24356;48.460;11.450;2023-02-21T07:05:45;2.00;87.90
38592;DHT22;24356;48.460;11.450;2023-02-21T07:08:11;2.30;88.10
38592;DHT22;24356;48.460;11.450;2023-02-21T07:10:36;2.60;87.90
38592;DHT22;24356;48.460;11.450;2023-02-21T07:13:02;2.90;87.20
38592;DHT22;24356;48.460;11.450;2023-02-21T07:15:27;3.20;86.60
38592;DHT22;24356;48.460;11.450;2023-02-21T07:17:53;3.40;85.80
38592;DHT22;24356;48.460;11.450;2023-02-21T07:20:19;3.60;85.60
38592;DHT22;24356;48.460;11.450;2023-02-21T07:22:44;3.80;85.00
38592;DHT22;24356;48.460;11.450;2023-02-21T07:25:15;4.00;84.60
38592;DHT22;24356;48.460;11.450;2023-02-21T07:27:41;4.10;84.20
38592;DHT22;24356;48.460;11.450;2023-02-21T07:30:07;4.20;83.50
38592;DHT22;24356;48.460;11.450;2023-02-21T07:32:33;4.40;83.60
38592;DHT22;24356;48.460;11.450;2023-02-21T07:34:58;4.60;83.30
38592;DHT22;24356;48.460;11.450;2023-02-21T07:37:24;4.70;82.90
38592;DHT22;24356;48.460;11.450;2023-02-21T07:39:52;4.90;82.70
38592;DHT22;24356;48.460;11.450;2023-02-21T07:42:18;5.00;82.40
38592;DHT22;24356;48.460;11.450;2023-02-21T07:44:43;5.00;82.30
38592;DHT22;24356;48.460;11.450;2023-02-21T07:47:09;5.10;82.60
38592;DHT22;24356;48.460;11.450;2023-02-21T07:49:38;5.20;82.70
38592;DHT22;24356;48.460;11.450;2023-02-21T07:52:05;5.20;82.80
38592;DHT22;24356;48.460;11.450;2023-02-21T07:54:31;5.30;83.00
38592;DHT22;24356;48.460;11.450;2023-02-21T07:56:56;5.50;83.30
38592;DHT22;24356;48.460;11.450;2023-02-21T07:59:23;5.70;83.20
38592;DHT22;24356;48.460;11.450;2023-02-21T08:01:48;5.90;83.40
38592;DHT22;24356;48.460;11.450;2023-02-21T08:04:14;6.10;83.30
38592;DHT22;24356;48.460;11.450;2023-02-21T08:06:44;6.30;83.00
38592;DHT22;24356;48.460;11.450;2023-02-21T08:09:10;6.40;82.60
38592;DHT22;24356;48.460;11.450;2023-02-21T08:11:35;6.60;83.10
38592;DHT22;24356;48.460;11.450;2023-02-21T08:14:02;6.90;82.50
38592;DHT22;24356;48.460;11.450;2023-02-21T08:16:27;7.20;82.20
38592;DHT22;24356;48.460;11.450;2023-02-21T08:18:53;7.40;81.90
38592;DHT22;24356;48.460;11.450;2023-02-21T08:21:19;7.70;81.40
38592;DHT22;24356;48.460;11.450;2023-02-21T08:23:44;8.00;81.50
38592;DHT22;24356;48.460;11.450;2023-02-21T08:26:10;8.30;81.40
38592;DHT22;24356;48.460;11.450;2023-02-21T08:28:35;8.60;81.30
38592;DHT22;24356;48.460;11.450;2023-02-21T08:31:01;9.00;81.10
38592;DHT22;24356;48.460;11.450;2023-02-21T08:33:27;9.20;81.00
38592;DHT22;24356;48.460;11.450;2023-02-21T08:35:53;9.60;81.20
38592;DHT22;24356;48.460;11.450;2023-02-21T08:38:19;9.90;80.90
38592;DHT22;24356;48.460;11.450;2023-02-21T08:40:44;10.20;80.80
38592;DHT22;24356;48.460;11.450;2023-02-21T08:43:10;10.50;80.90
38592;DHT22;24356;48.460;11.450;2023-02-21T08:45:36;10.80;81.00
38592;DHT22;24356;48.460;11.450;2023-02-21T08:48:02;11.10;81.00
38592;DHT22;24356;48.460;11.450;2023-02-21T08:50:28;11.20;81.10
38592;DHT22;24356;48.460;11.450;2023-02-21T08:52:55;11.40;80.90
38592;DHT22;24356;48.460;11.450;2023-02-21T08:55:21;11.60;80.50
38592;DHT22;24356;48.460;11.450;2023-02-21T08:57:48;11.80;80.30
38592;DHT22;24356;48.460;11.450;2023-02-21T09:00:15;12.00;80.10
38592;DHT22;24356;48.460;11.450;2023-02-21T09:02:40;12.20;80.50
38592;DHT22;24356;48.460;11.450;2023-02-21T09:05:08;12.50;80.20
38592;DHT22;24356;48.460;11.450;2023-02-21T09:07:34;12.70;79.90
38592;DHT22;24356;48.460;11.450;2023-02-21T09:10:00;13.00;79.40
38592;DHT22;24356;48.460;11.450;2023-02-21T09:12:26;13.20;79.20
38592;DHT22;24356;48.460;11.450;2023-02-21T09:14:51;13.40;79.60
38592;DHT22;24356;48.460;11.450;2023-02-21T09:17:17;13.60;79.50
38592;DHT22;24356;48.460;11.450;2023-02-21T09:19:42;13.80;79.40
38592;DHT22;24356;48.460;11.450;2023-02-21T09:22:09;14.00;79.50
38592;DHT22;24356;48.460;11.450;2023-02-21T09:24:35;14.20;79.20
38592;DHT22;24356;48.460;11.450;2023-02-21T09:27:01;14.40;79.40
38592;DHT22;24356;48.460;11.450;2023-02-21T09:29:32;14.60;79.20
38592;DHT22;24356;48.460;11.450;2023-02-21T09:31:59;14.80;79.20
38592;DHT22;24356;48.460;11.450;2023-02-21T09:34:25;15.00;79.10
38592;DHT22;24356;48.460;11.450;2023-02-21T09:36:51;15.20;79.10
38592;DHT22;24356;48.460;11.450;2023-02-21T09:39:17;15.40;78.50
38592;DHT22;24356;48.460;11.450;2023-02-21T09:41:43;15.50;78.60
38592;DHT22;24356;48.460;11.450;2023-02-21T09:44:14;15.70;78.60
38592;DHT22;24356;48.460;11.450;2023-02-21T09:46:48;15.80;78.80
38592;DHT22;24356;48.460;11.450;2023-02-21T09:49:29;16.00;78.60
38592;DHT22;24356;48.460;11.450;2023-02-21T09:51:57;16.00;78.40
38592;DHT22;24356;48.460;11.450;2023-02-21T09:54:24;16.10;78.20
38592;DHT22;24356;48.460;11.450;2023-02-21T09:56:53;16.30;78.70
38592;DHT22;24356;48.460;11.450;2023-02-21T09:59:22;16.40;78.20
38592;DHT22;24356;48.460;11.450;2023-02-21T10:10:08;16.90;77.80
38592;DHT22;24356;48.460;11.450;2023-02-21T10:12:53;17.00;77.40
38592;DHT22;24356;48.460;11.450;2023-02-21T10:20:46;17.40;77.70
38592;DHT22;24356;48.460;11.450;2023-02-21T10:23:37;17.40;77.00
38592;DHT22;24356;48.460;11.450;2023-02-21T10:26:08;17.50;77.80
38592;DHT22;24356;48.460;11.450;2023-02-21T10:28:34;17.50;77.90
38592;DHT22;24356;48.460;11.450;2023-02-21T10:31:07;17.60;78.20
38592;DHT22;24356;48.460;11.450;2023-02-21T10:33:36;17.60;78.30
38592;DHT22;24356;48.460;11.450;2023-02-21T10:36:12;17.60;78.10
38592;DHT22;24356;48.460;11.450;2023-02-21T10:38:40;17.60;78.20
38592;DHT22;24356;48.460;11.450;2023-02-21T10:41:07;17.60;77.30
38592;DHT22;24356;48.460;11.450;2023-02-21T10:43:37;17.60;76.50
38592;DHT22;24356;48.460;11.450;2023-02-21T10:46:24;17.60;77.20
38592;DHT22;24356;48.460;11.450;2023-02-21T10:48:54;17.60;76.60
38592;DHT22;24356;48.460;11.450;2023-02-21T10:51:32;17.60;75.90
38592;DHT22;24356;48.460;11.450;2023-02-21T10:54:23;17.60;75.90
38592;DHT22;24356;48.460;11.450;2023-02-21T10:56:51;17.50;76.70
38592;DHT22;24356;48.460;11.450;2023-02-21T10:59:27;17.50;76.70
38592;DHT22;24356;48.460;11.450;2023-02-21T11:01:54;17.50;76.50
38592;DHT22;24356;48.460;11.450;2023-02-21T11:04:22;17.40;75.90
38592;DHT22;24356;48.460;11.450;2023-02-21T11:09:33;17.50;77.00
38592;DHT22;24356;48.460;11.450;2023-02-21T11:12:03;17.50;75.80
38592;DHT22;24356;48.460;11.450;2023-02-21T11:14:30;17.50;76.50
38592;DHT22;24356;48.460;11.450;2023-02-21T11:22:06;17.40;75.80
38592;DHT22;24356;48.460;11.450;2023-02-21T11:24:56;17.30;75.40
38592;DHT22;24356;48.460;11.450;2023-02-21T11:27:19;17.30;75.90
38592;DHT22;24356;48.460;11.450;2023-02-21T11:29:48;17.10;76.50
38592;DHT22;24356;48.460;11.450;2023-02-21T11:32:30;17.10;75.90
38592;DHT22;24356;48.460;11.450;2023-02-21T11:35:26;17.00;76.20
38592;DHT22;24356;48.460;11.450;2023-02-21T11:37:54;17.00;76.60
38592;DHT22;24356;48.460;11.450;2023-02-21T11:40:30;17.10;75.50
38592;DHT22;24356;48.460;11.450;2023-02-21T11:43:19;17.00;76.40
38592;DHT22;24356;48.460;11.450;2023-02-21T11:49:07;17.10;75.90
38592;DHT22;24356;48.460;11.450;2023-02-21T11:51:48;17.20;76.90
38592;DHT22;24356;48.460;11.450;2023-02-21T11:54:15;17.30;79.50
38592;DHT22;24356;48.460;11.450;2023-02-21T11:59:26;17.40;80.20
38592;DHT22;24356;48.460;11.450;2023-02-21T12:04:43;17.50;76.70
38592;DHT22;24356;48.460;11.450;2023-02-21T12:10:12;17.40;79.90
38592;DHT22;24356;48.460;11.450;2023-02-21T12:15:50;17.30;76.90
38592;DHT22;24356;48.460;11.450;2023-02-21T12:21:27;17.30;77.20
38592;DHT22;24356;48.460;11.450;2023-02-21T12:26:50;17.30;78.30
38592;DHT22;24356;48.460;11.450;2023-02-21T12:29:46;17.30;77.60
38592;DHT22;24356;48.460;11.450;2023-02-21T12:37:55;17.10;77.30
38592;DHT22;24356;48.460;11.450;2023-02-21T12:45:32;17.00;76.30
38592;DHT22;24356;48.460;11.450;2023-02-21T12:48:28;17.00;76.70
38592;DHT22;24356;48.460;11.450;2023-02-21T12:50:59;17.00;75.80
38592;DHT22;24356;48.460;11.450;2023-02-21T12:53:42;17.00;76.10
38592;DHT22;24356;48.460;11.450;2023-02-21T12:56:23;17.00;75.30
38592;DHT22;24356;48.460;11.450;2023-02-21T12:58:55;17.10;77.50
38592;DHT22;24356;48.460;11.450;2023-02-21T13:01:32;17.10;78.00
38592;DHT22;24356;48.460;11.450;2023-02-21T13:09:44;17.30;77.90
38592;DHT22;24356;48.460;11.450;2023-02-21T13:12:18;17.30;79.10
38592;DHT22;24356;48.460;11.450;2023-02-21T13:14:52;17.40;81.00
38592;DHT22;24356;48.460;11.450;2023-02-21T13:17:19;17.40;81.60
38592;DHT22;24356;48.460;11.450;2023-02-21T13:20:01;17.50;81.50
38592;DHT22;24356;48.460;11.450;2023-02-21T13:30:43;17.80;80.80
38592;DHT22;24356;48.460;11.450;2023-02-21T13:33:43;17.90;81.80
38592;DHT22;24356;48.460;11.450;2023-02-21T13:39:04;18.10;83.40
38592;DHT22;24356;48.460;11.450;2023-02-21T13:41:37;18.20;82.80
38592;DHT22;24356;48.460;11.450;2023-02-21T13:44:07;18.30;83.50
38592;DHT22;24356;48.460;11.450;2023-02-21T13:52:21;18.60;86.00
38592;DHT22;24356;48.460;11.450;2023-02-21T13:57:34;18.70;87.30
38592;DHT22;24356;48.460;11.450;2023-02-21T14:13:23;19.00;86.30
38592;DHT22;24356;48.460;11.450;2023-02-21T14:16:07;19.10;85.70
38592;DHT22;24356;48.460;11.450;2023-02-21T14:18:48;19.10;86.50
38592;DHT22;24356;48.460;11.450;2023-02-21T14:21:33;19.20;87.70
38592;DHT22;24356;48.460;11.450;2023-02-21T14:34:35;19.20;86.80
38592;DHT22;24356;48.460;11.450;2023-02-21T14:39:48;19.20;86.10
38592;DHT22;24356;48.460;11.450;2023-02-21T14:45:06;19.20;85.50
38592;DHT22;24356;48.460;11.450;2023-02-21T14:48:15;19.20;85.70
38592;DHT22;24356;48.460;11.450;2023-02-21T14:54:09;19.20;82.80
38592;DHT22;24356;48.460;11.450;2023-02-21T14:57:18;19.20;80.60
38592;DHT22;24356;48.460;11.450;2023-02-21T15:02:38;19.20;76.90
38592;DHT22;24356;48.460;11.450;2023-02-21T15:05:27;19.10;73.40
38592;DHT22;24356;48.460;11.450;2023-02-21T15:10:29;18.90;73.30
38592;DHT22;24356;48.460;11.450;2023-02-21T15:13:03;18.80;73.00
38592;DHT22;24356;48.460;11.450;2023-02-21T15:15:34;18.70;73.50
38592;DHT22;24356;48.460;11.450;2023-02-21T15:18:01;18.60;73.70
38592;DHT22;24356;48.460;11.450;2023-02-21T15:20:27;18.50;73.30
38592;DHT22;24356;48.460;11.450;2023-02-21T15:23:12;18.40;73.50
38592;DHT22;24356;48.460;11.450;2023-02-21T15:25:38;18.30;73.10
38592;DHT22;24356;48.460;11.450;2023-02-21T15:28:13;18.10;73.40
38592;DHT22;24356;48.460;11.450;2023-02-21T15:31:01;18.00;73.60
38592;DHT22;24356;48.460;11.450;2023-02-21T15:33:35;17.90;73.60
38592;DHT22;24356;48.460;11.450;2023-02-21T15:36:20;17.70;73.70
38592;DHT22;24356;48.460;11.450;2023-02-21T15:39:14;17.50;73.90
38592;DHT22;24356;48.460;11.450;2023-02-21T15:41:41;17.40;73.20
38592;DHT22;24356;48.460;11.450;2023-02-21T15:44:11;17.20;72.60
38592;DHT22;24356;48.460;11.450;2023-02-21T15:46:55;17.10;73.50
38592;DHT22;24356;48.460;11.450;2023-02-21T15:49:25;16.90;74.00
38592;DHT22;24356;48.460;11.450;2023-02-21T15:51:51;16.70;74.40
38592;DHT22;24356;48.460;11.450;2023-02-21T15:56:43;16.30;74.50
38592;DHT22;24356;48.460;11.450;2023-02-21T15:59:10;16.10;74.40
38592;DHT22;24356;48.460;11.450;2023-02-21T16:01:37;16.00;74.80
38592;DHT22;24356;48.460;11.450;2023-02-21T16:04:19;15.80;75.00
38592;DHT22;24356;48.460;11.450;2023-02-21T16:06:51;15.60;74.80
38592;DHT22;24356;48.460;11.450;2023-02-21T16:09:28;15.40;74.80
38592;DHT22;24356;48.460;11.450;2023-02-21T16:11:59;15.20;74.90
38592;DHT22;24356;48.460;11.450;2023-02-21T16:19:34;14.70;75.50
38592;DHT22;24356;48.460;11.450;2023-02-21T16:22:23;14.50;75.80
38592;DHT22;24356;48.460;11.450;2023-02-21T16:24:49;14.30;75.90
38592;DHT22;24356;48.460;11.450;2023-02-21T16:27:16;14.10;75.90
38592;DHT22;24356;48.460;11.450;2023-02-21T16:29:42;13.90;76.40
38592;DHT22;24356;48.460;11.450;2023-02-21T16:32:17;13.80;76.70
38592;DHT22;24356;48.460;11.450;2023-02-21T16:34:44;13.60;76.80
38592;DHT22;24356;48.460;11.450;2023-02-21T16:37:11;13.40;77.00
38592;DHT22;24356;48.460;11.450;2023-02-21T16:39:38;13.20;77.40
38592;DHT22;24356;48.460;11.450;2023-02-21T16:42:05;13.10;77.50
38592;DHT22;24356;48.460;11.450;2023-02-21T16:44:31;12.90;78.00
38592;DHT22;24356;48.460;11.450;2023-02-21T16:46:56;12.80;78.50
38592;DHT22;24356;48.460;11.450;2023-02-21T16:49:22;12.60;78.50
38592;DHT22;24356;48.460;11.450;2023-02-21T16:51:48;12.40;78.80
38592;DHT22;24356;48.460;11.450;2023-02-21T16:54:14;12.30;79.10
38592;DHT22;24356;48.460;11.450;2023-02-21T16:56:41;12.10;79.60
38592;DHT22;24356;48.460;11.450;2023-02-21T16:59:11;12.00;79.80
38592;DHT22;24356;48.460;11.450;2023-02-21T17:01:37;11.80;80.30
38592;DHT22;24356;48.460;11.450;2023-02-21T17:04:17;11.70;80.70
38592;DHT22;24356;48.460;11.450;2023-02-21T17:06:46;11.60;80.70
38592;DHT22;24356;48.460;11.450;2023-02-21T17:09:21;11.40;80.60
38592;DHT22;24356;48.460;11.450;2023-02-21T17:11:46;11.30;80.80
38592;DHT22;24356;48.460;11.450;2023-02-21T17:14:13;11.10;80.70
38592;DHT22;24356;48.460;11.450;2023-02-21T17:16:38;11.00;81.20
38592;DHT22;24356;48.460;11.450;2023-02-21T17:19:04;10.80;81.20
38592;DHT22;24356;48.460;11.450;2023-02-21T17:21:30;10.70;81.40
38592;DHT22;24356;48.460;11.450;2023-02-21T17:23:56;10.60;81.40
38592;DHT22;24356;48.460;11.450;2023-02-21T17:26:23;10.40;81.00
38592;DHT22;24356;48.460;11.450;2023-02-21T17:28:49;10.30;82.00
38592;DHT22;24356;48.460;11.450;2023-02-21T17:31:16;10.20;82.10
38592;DHT22;24356;48.460;11.450;2023-02-21T17:33:44;10.10;81.90
38592;DHT22;24356;48.460;11.450;2023-02-21T17:36:17;9.90;82.60
38592;DHT22;24356;48.460;11.450;2023-02-21T17:38:43;9.80;83.00
38592;DHT22;24356;48.460;11.450;2023-02-21T17:41:08;9.70;82.70
38592;DHT22;24356;48.460;11.450;2023-02-21T17:43:34;9.60;83.00
38592;DHT22;24356;48.460;11.450;2023-02-21T17:45:59;9.50;83.50
38592;DHT22;24356;48.460;11.450;2023-02-21T17:48:25;9.40;83.70
38592;DHT22;24356;48.460;11.450;2023-02-21T17:50:51;9.20;83.40
38592;DHT22;24356;48.460;11.450;2023-02-21T17:53:16;9.10;83.80
38592;DHT22;24356;48.460;11.450;2023-02-21T17:55:42;9.00;84.10
38592;DHT22;24356;48.460;11.450;2023-02-21T17:58:07;8.90;83.90
38592;DHT22;24356;48.460;11.450;2023-02-21T18:00:34;8.80;84.10
38592;DHT22;24356;48.460;11.450;2023-02-21T18:03:00;8.70;84.10
38592;DHT22;24356;48.460;11.450;2023-02-21T18:05:29;8.70;84.30
38592;DHT22;24356;48.460;11.450;2023-02-21T18:07:56;8.60;84.70
38592;DHT22;24356;48.460;11.450;2023-02-21T18:10:23;8.50;84.60
38592;DHT22;24356;48.460;11.450;2023-02-21T18:12:50;8.40;84.50
38592;DHT22;24356;48.460;11.450;2023-02-21T18:15:18;8.30;84.60